TimeEST,TemperatureF,Dew PointF,Humidity,Sea Level PressureIn,VisibilityMPH,Wind Direction,Wind SpeedMPH,Gust SpeedMPH,PrecipitationIn,Events,Conditions,WindDirDegrees,DateUTC
12:56 AM,21.0,16.0,81,30.12,10.0,West,4.6,-,N/A,,Clear,260,2013-03-04 05:56:00
1:56 AM,19.9,15.1,81,30.14,10.0,West,5.8,-,N/A,,Clear,270,2013-03-04 06:56:00
2:56 AM,19.9,16.0,85,30.13,10.0,West,3.5,-,N/A,,Clear,270,2013-03-04 07:56:00
3:56 AM,21.2,15.8,80,30.10,10.0,West,5.8,-,N/A,,Clear,280,2013-03-04 08:56:00
4:56 AM,19.9,14.0,78,30.14,10.0,WNW,3.5,-,N/A,,Clear,300,2013-03-04 09:56:00
5:56 AM,19.0,14.0,81,30.16,10.0,WNW,3.5,-,N/A,,Clear,290,2013-03-04 10:56:00
6:56 AM,19.4,15.8,86,30.14,10.0,Calm,Calm,-,N/A,,Clear,0,2013-03-04 11:56:00
7:56 AM,23.0,17.1,78,30.18,10.0,Calm,Calm,-,N/A,,Clear,0,2013-03-04 12:56:00
8:56 AM,26.1,18.0,71,30.19,10.0,Calm,Calm,-,N/A,,Clear,0,2013-03-04 13:56:00
9:56 AM,28.9,18.0,64,30.19,10.0,Calm,Calm,-,N/A,,Scattered Clouds,0,2013-03-04 14:56:00
10:56 AM,32.0,18.0,56,30.17,10.0,Calm,Calm,-,N/A,,Mostly Cloudy,0,2013-03-04 15:56:00
11:56 AM,34.0,18.0,52,30.16,10.0,SSW,5.8,-,N/A,,Mostly Cloudy,210,2013-03-04 16:56:00
12:56 PM,36.0,16.0,44,30.14,10.0,Calm,Calm,-,N/A,,Mostly Cloudy,0,2013-03-04 17:56:00
1:56 PM,36.0,18.0,48,30.11,10.0,Calm,Calm,-,N/A,,Mostly Cloudy,0,2013-03-04 18:56:00
2:56 PM,39.0,14.0,36,30.09,10.0,Variable,3.5,-,N/A,,Scattered Clouds,0,2013-03-04 19:56:00
3:56 PM,39.9,16.0,38,30.08,10.0,Calm,Calm,-,N/A,,Mostly Cloudy,0,2013-03-04 20:56:00
4:56 PM,39.0,18.0,43,30.07,10.0,SE,6.9,-,N/A,,Mostly Cloudy,130,2013-03-04 21:56:00
5:56 PM,39.0,19.0,45,30.07,10.0,SE,6.9,-,N/A,,Overcast,130,2013-03-04 22:56:00
6:56 PM,37.0,21.0,52,30.07,10.0,East,6.9,-,N/A,,Overcast,90,2013-03-04 23:56:00
7:56 PM,37.0,21.0,52,30.06,10.0,SE,8.1,-,N/A,,Overcast,130,2013-03-05 00:56:00
8:56 PM,34.0,26.1,73,30.06,9.0,SE,6.9,-,0.03,Rain,Light Rain,130,2013-03-05 01:56:00
9:56 PM,34.0,28.0,79,30.07,7.0,ESE,5.8,-,0.03,Rain,Light Rain,110,2013-03-05 02:56:00
10:56 PM,33.1,28.9,85,30.09,8.0,East,3.5,-,0.02,Rain,Light Rain,100,2013-03-05 03:56:00
11:46 PM,32.0,28.4,87,30.06,2.0,NE,6.9,-,0.01,Snow,Light Snow,50,2013-03-05 04:46:00
11:56 PM,32.0,28.9,88,30.09,2.0,ENE,8.1,-,0.01,Snow,Light Snow,60,2013-03-05 04:56:00